Time;durP1;ratioP1;P1;durP2;ratioP2;P2;SDS_P1;SDS_P2;PMS_P1;PMS_P2;Temp;Humidity;BMP_temperature;BMP_pressure;BME280_temperature;BME280_humidity;BME280_pressure;Samples;Min_cycle;Max_cycle;Signal;HPM_P1;HPM_P2
2022/06/03 00:02:36;;;;;;;11.65;4.07;;;20.60;57.70;;;;;;4997164;28;20505;-75
2022/06/03 00:05:39;;;;;;;13.82;6.13;;;20.60;57.60;;;;;;4989940;28;20027;-73
2022/06/03 00:08:21;;;;;;;40.08;29.42;;;20.50;56.80;;;;;;4997756;28;20088;-76
2022/06/03 00:11:08;;;;;;;47.90;29.35;;;20.50;56.50;;;;;;4989360;28;20516;-81
2022/06/03 00:14:02;;;;;;;44.70;28.95;;;20.40;55.30;;;;;;4988106;28;20022;-80
2022/06/03 00:16:55;;;;;;;38.85;24.05;;;20.40;55.20;;;;;;4987394;28;20041;-81
2022/06/03 00:19:41;;;;;;;47.20;24.83;;;20.40;55.70;;;;;;4999868;28;20031;-81
2022/06/03 00:22:31;;;;;;;38.63;23.17;;;20.50;55.90;;;;;;4989631;28;20113;-80
2022/06/03 00:25:03;;;;;;;31.33;20.80;;;20.50;55.60;;;;;;4991036;28;20026;-81
2022/06/03 00:27:53;;;;;;;31.83;20.40;;;20.50;55.70;;;;;;4990400;28;20027;-81
2022/06/03 00:30:57;;;;;;;30.67;20.08;;;20.50;55.80;;;;;;4990714;28;20034;-81
2022/06/03 00:33:36;;;;;;;33.78;20.73;;;20.50;56.50;;;;;;4988267;28;20387;-81
2022/06/03 00:36:25;;;;;;;36.92;20.95;;;20.50;55.90;;;;;;4990852;28;20031;-82
2022/06/03 00:39:25;;;;;;;31.95;20.45;;;20.40;56.00;;;;;;4974449;28;20483;-81
2022/06/03 00:42:22;;;;;;;32.38;20.83;;;20.40;56.10;;;;;;4961701;28;20058;-81
2022/06/03 00:45:30;;;;;;;30.48;20.77;;;20.50;56.20;;;;;;4991982;28;20029;-81
2022/06/03 00:47:59;;;;;;;28.83;20.88;;;20.50;56.20;;;;;;4967514;28;20045;-80
2022/06/03 00:50:43;;;;;;;29.23;20.55;;;20.50;56.20;;;;;;4989561;28;20395;-80
2022/06/03 00:53:23;;;;;;;34.13;21.05;;;20.50;56.80;;;;;;4973798;28;20067;-81
2022/06/03 00:56:26;;;;;;;31.17;20.60;;;20.50;56.50;;;;;;5007186;28;20037;-81
2022/06/03 00:59:10;;;;;;;30.33;20.88;;;20.50;56.40;;;;;;4984731;28;20038;-81
2022/06/03 01:01:54;;;;;;;29.02;18.42;;;20.50;56.50;;;;;;4969493;28;20399;-81
2022/06/03 01:04:20;;;;;;;30.17;18.98;;;20.50;56.50;;;;;;4993612;28;20037;-81
2022/06/03 01:06:52;;;;;;;31.85;19.67;;;20.40;56.50;;;;;;5002176;28;20041;-80
2022/06/03 01:09:27;;;;;;;28.88;18.75;;;20.50;56.70;;;;;;4995480;28;20058;-80
2022/06/03 01:12:15;;;;;;;29.88;18.80;;;20.50;56.70;;;;;;4987618;28;20484;-80
2022/06/03 01:15:00;;;;;;;29.08;18.83;;;20.40;56.70;;;;;;4999941;28;20033;-80
2022/06/03 01:17:56;;;;;;;27.58;18.73;;;20.40;56.70;;;;;;4988850;28;20022;-80
2022/06/03 01:20:45;;;;;;;30.70;18.73;;;20.50;56.70;;;;;;4993499;28;20583;-80
2022/06/03 01:23:33;;;;;;;29.48;18.67;;;20.50;57.40;;;;;;4993110;28;20034;-80
2022/06/03 01:26:19;;;;;;;27.50;18.05;;;20.50;56.80;;;;;;5001531;28;20073;-81
2022/06/03 01:29:14;;;;;;;26.48;18.35;;;20.50;56.80;;;;;;4980033;28;20033;-80
2022/06/03 01:32:08;;;;;;;27.95;17.55;;;20.50;56.80;;;;;;4974925;28;20518;-80
2022/06/03 01:34:54;;;;;;;28.95;17.70;;;20.50;56.80;;;;;;4999820;28;20022;-80
2022/06/03 01:37:34;;;;;;;26.80;18.52;;;20.50;56.90;;;;;;4990303;28;20395;-80
2022/06/03 01:40:15;;;;;;;36.17;18.95;;;20.50;56.90;;;;;;4994903;28;20030;-80
2022/06/03 01:43:22;;;;;;;28.75;17.77;;;20.40;56.70;;;;;;5001132;28;20505;-79
2022/06/03 01:46:06;;;;;;;25.77;18.00;;;20.40;57.00;;;;;;4995738;28;20052;-80
2022/06/03 01:48:54;;;;;;;29.17;17.88;;;20.40;56.90;;;;;;4988009;28;20447;-80
2022/06/03 01:51:54;;;;;;;26.20;17.00;;;20.40;57.10;;;;;;4977611;28;20077;-81
2022/06/03 01:54:35;;;;;;;30.85;17.10;;;20.40;56.90;;;;;;4993106;28;20026;-80
2022/06/03 01:57:04;;;;;;;26.38;16.58;;;20.40;57.10;;;;;;4999594;28;20026;-80
2022/06/03 01:59:36;;;;;;;25.15;17.65;;;20.40;57.10;;;;;;4993086;28;20022;-80
2022/06/03 02:02:42;;;;;;;24.92;16.67;;;20.40;57.10;;;;;;4993176;28;20038;-80
2022/06/03 02:05:20;;;;;;;23.13;16.17;;;20.40;57.10;;;;;;4993754;28;20495;-80
2022/06/03 02:08:10;;;;;;;24.77;16.85;;;20.40;57.10;;;;;;4994254;28;20034;-79
2022/06/03 02:10:47;;;;;;;24.60;15.75;;;20.40;56.90;;;;;;4988159;28;20050;-79
2022/06/03 02:13:35;;;;;;;24.65;16.48;;;20.40;56.90;;;;;;4977354;28;20034;-79
2022/06/03 02:16:22;;;;;;;25.27;16.02;;;20.40;57.00;;;;;;4975435;28;20034;-79
2022/06/03 02:19:16;;;;;;;23.73;15.32;;;20.40;57.10;;;;;;4991921;28;20098;-79
2022/06/03 02:21:48;;;;;;;21.90;14.90;;;20.40;57.00;;;;;;4988654;28;20050;-79
2022/06/03 02:24:43;;;;;;;23.58;14.95;;;20.40;57.00;;;;;;4994611;28;20031;-80
2022/06/03 02:27:27;;;;;;;23.73;15.57;;;20.40;57.00;;;;;;4992645;28;20041;-79
2022/06/03 02:32:58;;;;;;;23.92;15.50;;;20.40;57.00;;;;;;4994534;28;20065;-79
2022/06/03 02:35:35;;;;;;;22.45;15.25;;;20.50;57.00;;;;;;4966002;28;20046;-79
2022/06/03 02:38:20;;;;;;;24.80;15.55;;;20.50;56.90;;;;;;4992222;28;20114;-78
2022/06/03 02:41:07;;;;;;;24.92;15.13;;;20.50;57.00;;;;;;4972237;28;20034;-79
2022/06/03 02:44:09;;;;;;;25.48;15.00;;;20.40;57.00;;;;;;4972331;28;20042;-79
2022/06/03 02:46:55;;;;;;;24.63;15.38;;;20.50;57.00;;;;;;4973118;28;20062;-78
2022/06/03 02:49:27;;;;;;;20.95;14.38;;;20.50;57.10;;;;;;4989458;28;20054;-80
2022/06/03 02:52:18;;;;;;;21.52;15.13;;;20.50;57.00;;;;;;4974695;28;20578;-79
2022/06/03 02:55:18;;;;;;;22.00;14.75;;;20.40;57.20;;;;;;5002582;28;20037;-80
2022/06/03 02:58:05;;;;;;;20.98;14.63;;;20.50;57.20;;;;;;4992513;28;20030;-80
2022/06/03 03:00:57;;;;;;;25.27;15.35;;;20.40;57.20;;;;;;4985499;28;20026;-80
2022/06/03 03:03:46;;;;;;;21.10;14.55;;;20.40;57.10;;;;;;4998216;28;20125;-80
2022/06/03 03:06:53;;;;;;;23.45;13.77;;;20.50;57.50;;;;;;5002962;28;20026;-79
2022/06/03 03:09:34;;;;;;;21.77;13.93;;;20.40;57.20;;;;;;4988025;28;20476;-81
2022/06/03 03:12:21;;;;;;;22.98;14.20;;;20.50;57.40;;;;;;4992714;28;20034;-82
2022/06/03 03:15:30;;;;;;;22.52;14.00;;;20.40;57.40;;;;;;5002876;28;20041;-80
2022/06/03 03:18:02;;;;;;;24.27;14.38;;;20.40;57.30;;;;;;4984192;28;20121;-81
2022/06/03 03:20:49;;;;;;;20.20;14.07;;;20.40;57.40;;;;;;4989172;28;20029;-81
2022/06/03 03:23:55;;;;;;;23.20;14.60;;;20.40;57.50;;;;;;4962253;28;20026;-81
2022/06/03 03:26:51;;;;;;;20.65;13.38;;;20.40;57.60;;;;;;4999879;28;20053;-81
2022/06/03 03:29:41;;;;;;;20.60;14.07;;;20.40;57.60;;;;;;4989120;28;20033;-81
2022/06/03 03:32:07;;;;;;;20.83;14.27;;;20.50;57.60;;;;;;4994083;28;20030;-81
2022/06/03 03:34:33;;;;;;;20.92;13.63;;;20.50;57.40;;;;;;4970547;28;20025;-78
2022/06/03 03:37:31;;;;;;;22.45;14.02;;;20.50;57.70;;;;;;4995193;28;20042;-81
2022/06/03 03:39:57;;;;;;;21.83;13.93;;;20.50;57.50;;;;;;4970976;28;20550;-81
2022/06/03 03:42:42;;;;;;;20.90;13.23;;;20.50;57.30;;;;;;4992423;28;20023;-81
2022/06/03 03:45:36;;;;;;;18.92;12.38;;;20.50;57.50;;;;;;4992950;28;20391;-81
2022/06/03 03:48:20;;;;;;;21.02;13.60;;;20.50;57.50;;;;;;4991040;28;20226;-81
2022/06/03 03:51:10;;;;;;;21.15;13.13;;;20.50;57.70;;;;;;4989687;28;20471;-80
2022/06/03 03:54:07;;;;;;;18.88;12.35;;;20.50;57.60;;;;;;4996035;28;20022;-79
2022/06/03 03:56:33;;;;;;;21.73;12.43;;;20.50;57.80;;;;;;4992210;28;20026;-81
2022/06/03 03:59:20;;;;;;;21.52;12.82;;;20.50;57.80;;;;;;4995086;28;20038;-80
2022/06/03 04:01:57;;;;;;;19.55;12.77;;;20.50;57.80;;;;;;4990842;28;20026;-82
2022/06/03 04:04:56;;;;;;;20.30;12.80;;;20.50;57.70;;;;;;4975148;28;20030;-82
2022/06/03 04:07:56;;;;;;;21.20;13.33;;;20.50;57.80;;;;;;4995496;28;20029;-78
2022/06/03 04:10:36;;;;;;;21.75;12.98;;;20.40;57.70;;;;;;4988191;28;20041;-81
2022/06/03 04:13:34;;;;;;;21.65;12.57;;;20.50;57.80;;;;;;4973621;28;20030;-81
2022/06/03 04:16:25;;;;;;;20.48;12.75;;;20.40;57.80;;;;;;4989945;28;20027;-81
2022/06/03 04:19:26;;;;;;;18.58;12.80;;;20.50;57.90;;;;;;4981588;28;20720;-82
2022/06/03 04:22:24;;;;;;;18.85;12.07;;;20.40;58.00;;;;;;4973326;28;20058;-82
2022/06/03 04:25:11;;;;;;;18.60;12.43;;;20.40;58.00;;;;;;4978979;28;20045;-81
2022/06/03 04:27:46;;;;;;;17.15;10.85;;;20.40;58.00;;;;;;4999539;28;20057;-82
2022/06/03 04:30:43;;;;;;;18.92;11.88;;;20.40;57.60;;;;;;4989133;28;20527;-82
2022/06/03 04:33:46;;;;;;;18.40;12.63;;;20.40;57.90;;;;;;4992987;28;20387;-80
2022/06/03 04:36:30;;;;;;;20.23;12.70;;;20.40;57.90;;;;;;4971059;28;20046;-82
2022/06/03 04:39:44;;;;;;;19.33;11.48;;;20.50;57.80;;;;;;4973637;28;20030;-80
2022/06/03 04:42:12;;;;;;;19.35;12.15;;;20.50;57.60;;;;;;4994302;28;20411;-80
2022/06/03 04:45:22;;;;;;;18.58;11.77;;;20.40;57.70;;;;;;5000637;28;20034;-79
2022/06/03 04:48:13;;;;;;;20.08;11.70;;;20.50;57.70;;;;;;4990393;28;20030;-80
2022/06/03 04:51:02;;;;;;;17.85;11.05;;;20.50;57.60;;;;;;4990030;28;20066;-78
2022/06/03 04:53:59;;;;;;;18.85;11.50;;;20.50;57.90;;;;;;4968185;28;20034;-78
2022/06/03 04:56:37;;;;;;;24.98;12.18;;;20.50;57.80;;;;;;4965215;28;20042;-79
2022/06/03 04:59:21;;;;;;;18.65;12.63;;;20.50;58.00;;;;;;4992091;28;20037;-78
2022/06/03 05:02:25;;;;;;;19.50;12.45;;;20.40;57.90;;;;;;5001302;28;20546;-78
2022/06/03 05:05:09;;;;;;;19.23;11.55;;;20.40;58.00;;;;;;4998969;28;20081;-80
2022/06/03 05:08:13;;;;;;;16.75;11.02;;;20.40;58.00;;;;;;4971330;28;20439;-79
2022/06/03 05:11:25;;;;;;;19.05;11.93;;;20.40;57.90;;;;;;5001713;28;20033;-79
2022/06/03 05:14:03;;;;;;;17.77;11.90;;;20.40;58.00;;;;;;5001094;28;20088;-81
2022/06/03 05:16:46;;;;;;;20.80;12.80;;;20.40;58.10;;;;;;4992018;28;20053;-79
2022/06/03 05:19:37;;;;;;;18.35;11.43;;;20.40;58.10;;;;;;4995191;28;20085;-79
2022/06/03 05:22:24;;;;;;;18.27;11.82;;;20.40;58.00;;;;;;5002539;28;20042;-80
2022/06/03 05:24:53;;;;;;;19.17;10.95;;;20.40;58.20;;;;;;4998442;28;20177;-80
2022/06/03 05:27:21;;;;;;;17.48;9.85;;;20.40;58.20;;;;;;4985227;28;20101;-80
2022/06/03 05:30:21;;;;;;;17.98;11.23;;;20.40;58.30;;;;;;4993709;28;20018;-82
2022/06/03 05:33:01;;;;;;;18.45;11.93;;;20.40;58.20;;;;;;4995630;28;20018;-80
2022/06/03 05:36:14;;;;;;;18.23;11.52;;;20.40;58.10;;;;;;4994719;28;20118;-80
2022/06/03 05:39:19;;;;;;;18.77;10.90;;;20.40;58.20;;;;;;4948966;28;20123;-80
2022/06/03 05:45:07;;;;;;;19.77;11.55;;;20.40;58.00;;;;;;5010388;28;20053;-80
2022/06/03 05:48:03;;;;;;;17.20;10.50;;;20.40;58.10;;;;;;4986344;28;20085;-80
2022/06/03 05:50:55;;;;;;;16.50;10.63;;;20.40;58.20;;;;;;4996999;28;20108;-79
2022/06/03 05:53:28;;;;;;;19.20;11.35;;;20.50;58.20;;;;;;4990000;28;20026;-79
2022/06/03 05:56:02;;;;;;;17.98;10.90;;;20.40;58.30;;;;;;4999412;28;20026;-79
2022/06/03 05:58:43;;;;;;;18.15;11.38;;;20.50;57.90;;;;;;4994344;28;20019;-80
2022/06/03 06:01:51;;;;;;;18.48;11.15;;;20.50;58.00;;;;;;4995758;28;20129;-80
2022/06/03 06:04:40;;;;;;;16.38;10.38;;;20.40;57.90;;;;;;5002018;28;20014;-79
2022/06/03 06:07:27;;;;;;;16.88;11.02;;;20.40;57.90;;;;;;4965588;28;20065;-80
2022/06/03 06:10:29;;;;;;;16.17;9.68;;;20.50;58.40;;;;;;4998449;28;20030;-80
2022/06/03 06:13:21;;;;;;;15.95;10.40;;;20.50;58.00;;;;;;4980364;28;20029;-80
2022/06/03 06:16:01;;;;;;;17.38;10.75;;;20.40;57.90;;;;;;4993448;28;20018;-78
2022/06/03 06:18:53;;;;;;;17.25;10.25;;;20.50;58.00;;;;;;4985927;28;20446;-78
2022/06/03 06:22:05;;;;;;;19.92;10.40;;;20.50;58.10;;;;;;5004292;28;20034;-79
2022/06/03 06:24:55;;;;;;;17.92;10.43;;;20.50;58.10;;;;;;5000098;28;20046;-79
2022/06/03 06:27:33;;;;;;;17.23;10.10;;;20.50;58.20;;;;;;4986445;28;20044;-79
2022/06/03 06:30:33;;;;;;;19.13;10.82;;;20.50;58.00;;;;;;5000974;28;20038;-79
2022/06/03 06:33:23;;;;;;;19.58;10.20;;;20.50;58.10;;;;;;4987615;28;20057;-79
2022/06/03 06:36:24;;;;;;;18.73;10.40;;;20.50;58.10;;;;;;4989420;28;20030;-79
2022/06/03 06:39:17;;;;;;;19.15;10.13;;;20.40;58.10;;;;;;4997400;28;20030;-79
2022/06/03 06:41:50;;;;;;;16.52;9.57;;;20.40;58.20;;;;;;4989855;28;20042;-79
2022/06/03 06:44:40;;;;;;;18.48;10.13;;;20.50;58.20;;;;;;4977355;28;20029;-80
2022/06/03 06:47:33;;;;;;;17.88;9.52;;;20.40;58.20;;;;;;5002312;28;20487;-80
2022/06/03 06:50:22;;;;;;;15.00;9.68;;;20.40;58.10;;;;;;4977563;28;20462;-80
2022/06/03 06:53:00;;;;;;;17.33;9.73;;;20.50;58.10;;;;;;4960969;28;20481;-80
2022/06/03 06:55:49;;;;;;;21.13;9.85;;;20.50;58.10;;;;;;4991911;28;20715;-80
2022/06/03 06:58:30;;;;;;;18.33;10.50;;;20.50;58.10;;;;;;4965558;28;20034;-80
2022/06/03 07:00:59;;;;;;;15.57;9.57;;;20.50;58.10;;;;;;4998808;28;20109;-79
2022/06/03 07:03:49;;;;;;;17.63;10.40;;;20.50;58.40;;;;;;4986918;28;20146;-80
2022/06/03 07:06:40;;;;;;;16.40;10.32;;;20.50;58.50;;;;;;5006496;28;20030;-80
2022/06/03 07:09:31;;;;;;;17.67;10.18;;;20.50;58.20;;;;;;5009697;28;20037;-80
2022/06/03 07:12:19;;;;;;;16.98;9.70;;;20.50;58.20;;;;;;4991896;28;20030;-81
2022/06/03 07:14:55;;;;;;;15.55;9.85;;;20.50;59.10;;;;;;4998413;28;20088;-80
2022/06/03 07:20:33;;;;;;;15.50;9.77;;;20.50;59.20;;;;;;4999538;28;20030;-80
2022/06/03 07:23:28;;;;;;;16.15;9.65;;;20.50;58.30;;;;;;4992297;28;20034;-80
2022/06/03 07:26:02;;;;;;;15.95;9.10;;;20.50;58.30;;;;;;4999345;28;20052;-80
2022/06/03 07:28:37;;;;;;;15.52;9.45;;;20.50;58.50;;;;;;4997810;28;20055;-80
2022/06/03 07:31:30;;;;;;;14.70;9.43;;;20.50;58.80;;;;;;4999737;28;20030;-79
2022/06/03 07:34:03;;;;;;;16.35;9.80;;;20.50;58.50;;;;;;4992048;28;20377;-79
2022/06/03 07:36:45;;;;;;;17.10;9.52;;;20.50;59.10;;;;;;4996813;28;20049;-78
2022/06/03 07:39:28;;;;;;;17.27;9.48;;;20.50;58.20;;;;;;4999369;28;20050;-78
2022/06/03 07:42:04;;;;;;;13.40;8.77;;;20.50;58.60;;;;;;4995211;28;20034;-79
2022/06/03 07:44:56;;;;;;;15.38;9.35;;;20.50;58.70;;;;;;4992105;28;20026;-79
2022/06/03 07:47:24;;;;;;;19.20;9.48;;;20.50;59.40;;;;;;4993032;28;20033;-78
2022/06/03 07:49:59;;;;;;;15.00;9.40;;;20.60;59.60;;;;;;4991772;28;20029;-77
2022/06/03 07:52:27;;;;;;;20.15;9.35;;;20.60;59.70;;;;;;4993954;28;20498;-75
2022/06/03 07:54:58;;;;;;;20.73;9.25;;;20.70;59.70;;;;;;4987310;28;20447;-75
2022/06/03 07:57:29;;;;;;;17.02;8.30;;;20.60;59.50;;;;;;5002393;28;20368;-75
2022/06/03 07:59:58;;;;;;;21.88;8.75;;;20.70;59.10;;;;;;5000714;28;20023;-75
2022/06/03 08:02:23;;;;;;;19.90;8.98;;;20.70;59.30;;;;;;4999666;28;20029;-75
2022/06/03 08:05:09;;;;;;;18.65;8.90;;;20.80;60.40;;;;;;4990070;28;20034;-75
2022/06/03 08:13:13;;;;;;;17.75;8.95;;;21.00;60.50;;;;;;4988823;28;20104;-74
2022/06/03 08:15:50;;;;;;;22.33;7.60;;;21.00;60.90;;;;;;4990273;28;20034;-75
2022/06/03 08:18:18;;;;;;;16.58;7.57;;;21.00;58.90;;;;;;4999771;28;20037;-76
2022/06/03 08:20:54;;;;;;;13.98;6.80;;;21.00;58.20;;;;;;4998411;28;20037;-76
2022/06/03 08:23:22;;;;;;;16.63;7.53;;;20.90;58.30;;;;;;4990556;28;20030;-75
2022/06/03 08:25:52;;;;;;;14.73;6.28;;;20.90;57.90;;;;;;4992216;28;20434;-76
2022/06/03 08:28:20;;;;;;;;;;;20.90;57.90;;;;;;4992385;28;20395;-76
2022/06/03 08:30:49;;;;;;;11.88;5.43;;;20.90;57.10;;;;;;4997769;28;20373;-76
2022/06/03 08:33:19;;;;;;;11.65;5.43;;;20.90;55.60;;;;;;4989403;28;20014;-76
2022/06/03 08:35:48;;;;;;;15.65;5.80;;;20.90;55.60;;;;;;4991153;28;20387;-76
2022/06/03 08:38:26;;;;;;;9.05;4.30;;;20.90;56.20;;;;;;5001406;28;20438;-74
2022/06/03 08:41:07;;;;;;;12.75;4.45;;;20.90;54.00;;;;;;4997313;28;20096;-75
2022/06/03 08:44:13;;;;;;;14.90;5.60;;;20.90;55.80;;;;;;4982670;28;20050;-75
2022/06/03 08:47:06;;;;;;;13.45;4.35;;;20.90;56.50;;;;;;4993854;28;20034;-76
2022/06/03 08:50:02;;;;;;;9.95;4.32;;;20.90;54.40;;;;;;4998422;28;20506;-75
2022/06/03 08:53:07;;;;;;;9.90;3.75;;;20.90;54.30;;;;;;4981393;28;20407;-76
2022/06/03 08:55:51;;;;;;;13.20;4.20;;;20.90;52.90;;;;;;4951401;28;20455;-76
2022/06/03 08:58:28;;;;;;;18.95;4.43;;;21.00;54.30;;;;;;4992864;28;20046;-77
2022/06/03 09:01:11;;;;;;;19.23;5.75;;;21.00;53.90;;;;;;5011453;28;20057;-77
2022/06/03 09:04:11;;;;;;;16.20;7.00;;;21.00;53.50;;;;;;4986398;28;20038;-77
2022/06/03 09:06:48;;;;;;;18.98;10.52;;;20.90;52.10;;;;;;4971724;28;20035;-76
2022/06/03 09:09:31;;;;;;;20.30;12.23;;;21.00;50.20;;;;;;4972253;28;20043;-76
2022/06/03 09:12:12;;;;;;;23.33;15.10;;;21.00;50.30;;;;;;4977639;28;20026;-77
2022/06/03 09:14:43;;;;;;;31.92;19.80;;;20.90;49.80;;;;;;4991557;28;20018;-77
2022/06/03 09:17:44;;;;;;;42.72;26.48;;;21.00;50.60;;;;;;4990061;28;20023;-77
2022/06/03 09:20:19;;;;;;;48.97;34.88;;;21.00;49.20;;;;;;4991595;28;20565;-76
2022/06/03 09:22:46;;;;;;;37.80;25.90;;;20.90;51.60;;;;;;4989324;28;20070;-76
2022/06/03 09:25:15;;;;;;;31.55;22.17;;;20.90;50.00;;;;;;4991244;28;20041;-77
2022/06/03 09:27:42;;;;;;;27.27;18.00;;;20.90;49.40;;;;;;4990913;28;20040;-77
2022/06/03 09:30:10;;;;;;;37.53;25.38;;;20.90;49.50;;;;;;4990666;28;20045;-77
2022/06/03 09:32:47;;;;;;;35.97;22.90;;;20.90;49.40;;;;;;4988804;28;20054;-77
2022/06/03 09:35:18;;;;;;;44.30;31.23;;;20.90;48.90;;;;;;4989986;28;20105;-78
2022/06/03 09:37:55;;;;;;;34.45;22.33;;;20.90;48.50;;;;;;4990814;28;20026;-77
2022/06/03 09:40:23;;;;;;;66.30;44.03;;;21.00;49.20;;;;;;4989577;28;20112;-77
2022/06/03 09:43:16;;;;;;;29.15;19.83;;;20.90;50.90;;;;;;4990347;28;20057;-77
2022/06/03 09:45:46;;;;;;;26.67;18.10;;;20.90;48.60;;;;;;4938830;28;20039;-77
2022/06/03 09:48:17;;;;;;;27.38;17.42;;;20.90;48.20;;;;;;4970338;28;20502;-77
2022/06/03 09:50:46;;;;;;;19.95;11.15;;;20.90;48.30;;;;;;4945835;28;20038;-77
2022/06/03 09:53:16;;;;;;;26.02;15.65;;;20.90;47.90;;;;;;4977011;28;20045;-77
2022/06/03 09:55:52;;;;;;;23.65;15.13;;;21.00;48.50;;;;;;4995121;28;20022;-76
2022/06/03 09:58:22;;;;;;;27.73;15.82;;;21.00;48.30;;;;;;4994586;28;20031;-77
2022/06/03 10:00:49;;;;;;;;;;;21.00;49.20;;;;;;4994078;28;20031;-77
2022/06/03 10:03:16;;;;;;;15.25;8.15;;;21.00;47.40;;;;;;4993746;28;19910;-77
2022/06/03 10:05:47;;;;;;;15.45;9.27;;;21.10;47.10;;;;;;4993460;28;20121;-77
2022/06/03 10:08:18;;;;;;;17.45;10.82;;;21.00;48.20;;;;;;4993126;28;20076;-77
2022/06/03 10:13:33;;;;;;;17.13;8.13;;;21.10;47.70;;;;;;4987930;28;20042;-78
2022/06/03 10:16:00;;;;;;;;;;;21.00;47.40;;;;;;4962405;28;20041;-77
2022/06/03 10:18:38;;;;;;;13.38;6.93;;;21.00;47.60;;;;;;4977251;28;19960;-78
2022/06/03 10:21:10;;;;;;;12.10;4.80;;;21.10;47.60;;;;;;4994139;28;20050;-77
2022/06/03 10:23:51;;;;;;;17.65;7.47;;;21.10;46.40;;;;;;4994522;28;20030;-80
2022/06/03 10:26:27;;;;;;;8.18;4.65;;;21.10;48.30;;;;;;4993504;28;20666;-77
2022/06/03 10:28:55;;;;;;;13.25;7.90;;;21.10;46.50;;;;;;4994162;28;20031;-78
2022/06/03 10:31:28;;;;;;;13.05;7.57;;;21.00;47.80;;;;;;4992880;28;20033;-77
2022/06/03 10:33:57;;;;;;;14.07;6.85;;;21.00;47.90;;;;;;4992687;28;20027;-78
2022/06/03 10:36:31;;;;;;;17.13;8.00;;;21.00;48.80;;;;;;4994248;28;20037;-77
2022/06/03 10:38:57;;;;;;;10.10;5.97;;;21.00;49.30;;;;;;4993467;28;20030;-77
2022/06/03 10:41:41;;;;;;;9.70;5.43;;;21.10;48.30;;;;;;4993127;28;20113;-77
2022/06/03 10:44:20;;;;;;;17.15;5.50;;;21.10;48.10;;;;;;4991965;28;20185;-77
2022/06/03 10:46:55;;;;;;;11.88;4.80;;;21.10;47.20;;;;;;4993759;28;20034;-77
2022/06/03 10:49:23;;;;;;;12.35;6.63;;;21.10;46.90;;;;;;4993736;28;20030;-77
2022/06/03 11:02:53;;;;;;;10.30;4.40;;;21.10;47.00;;;;;;4975918;28;20475;-77
2022/06/03 11:05:34;;;;;;;5.00;3.60;;;21.00;47.80;;;;;;4992144;28;20030;-77
2022/06/03 11:08:10;;;;;;;6.82;3.33;;;21.10;46.80;;;;;;4991437;28;20482;-77
2022/06/03 11:10:49;;;;;;;8.68;3.15;;;21.10;45.90;;;;;;4994550;28;20034;-77
2022/06/03 11:13:39;;;;;;;5.03;3.03;;;21.10;47.60;;;;;;4988578;28;20093;-77
2022/06/03 11:16:20;;;;;;;6.32;2.90;;;21.10;46.10;;;;;;4993346;28;20101;-77
2022/06/03 11:18:46;;;;;;;9.35;3.90;;;21.10;45.60;;;;;;4975397;28;20026;-77
2022/06/03 11:21:23;;;;;;;7.00;3.53;;;21.10;47.20;;;;;;4975824;28;20049;-77
2022/06/03 11:23:49;;;;;;;6.65;3.00;;;21.00;46.20;;;;;;4991386;28;20036;-77
2022/06/03 11:26:17;;;;;;;7.65;3.30;;;21.00;46.10;;;;;;4992005;28;20025;-78
2022/06/03 11:28:54;;;;;;;5.28;2.67;;;21.10;46.70;;;;;;4991686;28;20479;-77
2022/06/03 11:31:37;;;;;;;8.27;3.30;;;21.10;46.70;;;;;;4993310;28;20042;-76
2022/06/03 11:34:17;;;;;;;5.30;2.78;;;21.10;46.50;;;;;;4991673;28;20418;-77
2022/06/03 11:37:03;;;;;;;7.03;2.60;;;21.10;47.50;;;;;;4975581;28;20031;-76
2022/06/03 11:39:50;;;;;;;7.07;3.20;;;21.10;46.10;;;;;;4992924;28;20086;-77
2022/06/03 11:42:47;;;;;;;8.38;3.17;;;21.20;47.00;;;;;;4993323;28;20034;-77
2022/06/03 11:45:21;;;;;;;5.38;2.95;;;21.20;46.20;;;;;;4993183;28;20487;-77
2022/06/03 11:48:01;;;;;;;3.75;2.60;;;21.20;47.80;;;;;;4988482;28;20124;-76
2022/06/03 11:50:29;;;;;;;3.88;2.63;;;21.20;46.50;;;;;;4993317;28;20062;-77
2022/06/03 11:52:57;;;;;;;4.43;2.60;;;21.20;46.20;;;;;;4975680;28;20030;-77
2022/06/03 11:55:26;;;;;;;6.32;3.00;;;21.30;46.80;;;;;;4991181;28;20018;-77
2022/06/03 11:58:02;;;;;;;9.20;2.70;;;21.30;47.00;;;;;;4991172;28;20030;-77
2022/06/03 12:00:33;;;;;;;7.07;2.45;;;21.30;46.40;;;;;;4992839;28;20038;-77
2022/06/03 12:03:20;;;;;;;5.72;2.30;;;21.30;45.80;;;;;;4991165;28;20031;-77
2022/06/03 12:05:56;;;;;;;4.32;2.30;;;21.30;45.50;;;;;;4987609;28;20022;-77
2022/06/03 12:08:30;;;;;;;5.20;2.20;;;21.30;45.20;;;;;;4972691;28;20034;-77
2022/06/03 12:13:14;;;;;;;3.83;2.10;;;21.40;45.10;;;;;;4971941;28;20042;-75
2022/06/03 12:14:12;;;;;;;5.05;2.20;;;21.30;45.10;;;;;;4989838;28;20034;-75
2022/06/03 12:17:11;;;;;;;3.22;2.15;;;21.30;45.10;;;;;;4992267;28;20030;-75
2022/06/03 12:19:43;;;;;;;4.15;2.15;;;21.30;45.00;;;;;;4992038;28;20018;-77
2022/06/03 12:22:30;;;;;;;2.47;1.70;;;21.30;45.00;;;;;;4992591;28;20034;-76
2022/06/03 12:24:58;;;;;;;4.55;2.08;;;21.30;45.40;;;;;;4988914;28;20056;-77
2022/06/03 12:27:38;;;;;;;4.95;2.63;;;21.30;46.50;;;;;;4994658;28;20038;-77
2022/06/03 12:30:26;;;;;;;22.60;7.57;;;21.30;46.30;;;;;;4994392;28;20052;-78
2022/06/03 12:33:02;;;;;;;16.85;6.15;;;21.40;48.50;;;;;;4991355;28;20501;-78
2022/06/03 12:35:43;;;;;;;16.60;6.03;;;21.40;50.30;;;;;;4991562;28;20045;-78
2022/06/03 12:38:21;;;;;;;12.80;4.40;;;21.40;47.70;;;;;;4992303;28;20427;-76
2022/06/03 12:40:58;;;;;;;8.93;3.63;;;21.40;46.50;;;;;;4993028;28;20080;-76
2022/06/03 12:43:30;;;;;;;10.07;3.65;;;21.40;45.10;;;;;;4990333;28;20034;-77
2022/06/03 12:46:03;;;;;;;11.13;4.05;;;21.40;46.20;;;;;;4974863;28;20166;-77
2022/06/03 12:48:45;;;;;;;12.32;4.15;;;21.40;47.40;;;;;;4992440;28;20038;-77
2022/06/03 12:51:19;;;;;;;9.45;3.47;;;21.50;47.80;;;;;;4989537;28;20126;-77
2022/06/03 12:53:48;;;;;;;5.20;2.90;;;21.40;46.50;;;;;;4991544;28;20265;-77
2022/06/03 12:56:27;;;;;;;9.88;3.55;;;21.40;45.60;;;;;;4990896;28;20022;-77
2022/06/03 12:58:57;;;;;;;;;;;21.40;45.70;;;;;;4988758;28;20041;-77
2022/06/03 13:01:34;;;;;;;11.18;3.90;;;21.40;45.10;;;;;;4990599;28;19910;-78
2022/06/03 13:04:40;;;;;;;7.03;3.40;;;21.40;45.20;;;;;;4991675;28;20046;-76
2022/06/03 13:07:27;;;;;;;6.45;3.45;;;21.40;45.00;;;;;;4991827;28;20467;-77
2022/06/03 13:10:02;;;;;;;4.97;2.67;;;21.40;43.90;;;;;;4990517;28;20030;-77
2022/06/03 13:12:31;;;;;;;7.72;3.55;;;21.40;43.50;;;;;;4989925;28;20039;-77
2022/06/03 13:15:17;;;;;;;6.97;2.80;;;21.40;43.30;;;;;;4989708;28;20034;-76
2022/06/03 13:18:10;;;;;;;6.43;3.20;;;21.40;42.70;;;;;;4991098;28;20113;-76
2022/06/03 13:21:09;;;;;;;8.60;3.15;;;21.40;42.90;;;;;;4988944;28;20088;-76
2022/06/03 13:23:37;;;;;;;5.10;2.70;;;21.40;41.90;;;;;;4985530;28;20030;-76
2022/06/03 13:26:23;;;;;;;9.38;3.85;;;21.40;42.30;;;;;;4958063;28;20391;-77
2022/06/03 13:28:53;;;;;;;9.32;3.25;;;21.40;42.90;;;;;;4985738;28;20042;-77
2022/06/03 13:31:30;;;;;;;;;;;21.40;43.60;;;;;;4990827;28;20026;-77
2022/06/03 13:34:04;;;;;;;10.27;3.58;;;21.50;43.40;;;;;;4993635;28;20427;-77
2022/06/03 13:36:52;;;;;;;8.40;2.92;;;21.40;43.40;;;;;;4991439;28;20029;-77
2022/06/03 13:39:24;;;;;;;10.32;4.43;;;21.50;42.60;;;;;;4989077;28;20035;-77
2022/06/03 13:45:03;;;;;;;10.40;3.72;;;21.40;43.00;;;;;;5009757;28;20104;-77
2022/06/03 13:47:45;;;;;;;8.00;3.38;;;21.50;42.70;;;;;;5008495;28;20034;-77
2022/06/03 13:50:13;;;;;;;9.10;3.70;;;21.40;42.50;;;;;;4990674;28;20042;-77
2022/06/03 13:52:51;;;;;;;6.55;3.20;;;21.40;43.70;;;;;;4986880;28;20034;-78
2022/06/03 13:55:25;;;;;;;10.75;3.20;;;21.40;42.40;;;;;;5010765;28;20033;-77
2022/06/03 13:57:55;;;;;;;8.95;3.65;;;21.40;42.20;;;;;;4995600;28;20064;-79
2022/06/03 14:00:26;;;;;;;6.63;3.08;;;21.50;42.50;;;;;;4994167;28;20036;-76
2022/06/03 14:03:07;;;;;;;7.38;3.38;;;21.50;42.30;;;;;;5000503;28;20061;-76
2022/06/03 14:05:43;;;;;;;11.23;3.85;;;21.50;41.90;;;;;;4993168;28;20666;-77
2022/06/03 14:08:18;;;;;;;6.10;2.80;;;21.50;42.80;;;;;;4998110;28;20522;-78
2022/06/03 14:11:15;;;;;;;6.85;2.70;;;21.50;41.70;;;;;;5005125;28;20026;-78
2022/06/03 14:13:55;;;;;;;7.18;2.58;;;21.50;41.40;;;;;;5009526;28;20060;-78
2022/06/03 14:16:46;;;;;;;8.68;2.58;;;21.50;41.30;;;;;;5000875;28;20060;-78
2022/06/03 14:19:12;;;;;;;5.63;2.70;;;21.50;41.00;;;;;;5005401;28;20030;-78
2022/06/03 14:21:37;;;;;;;15.13;8.32;;;21.50;42.10;;;;;;5004784;28;20100;-79
2022/06/03 14:24:18;;;;;;;28.80;17.45;;;21.50;41.60;;;;;;5000037;28;20030;-78
2022/06/03 14:26:49;;;;;;;17.98;10.85;;;21.50;40.70;;;;;;4990968;28;20034;-78